Time;durP1;ratioP1;P1;durP2;ratioP2;P2;SDS_P1;SDS_P2;PMS_P1;PMS_P2;Temp;Humidity;BMP_temperature;BMP_pressure;BME280_temperature;BME280_humidity;BME280_pressure;Samples;Min_cycle;Max_cycle;Signal;HPM_P1;HPM_P2
2022/11/04 00:01:19;;;;;;;7.88;4.43;;;;;;;9.75;100.00;100071.06;5093392;28;20028;-73
2022/11/04 00:03:45;;;;;;;4.50;3.40;;;;;;;9.64;100.00;100064.53;5093282;28;20478;-73
2022/11/04 00:06:11;;;;;;;8.00;4.30;;;;;;;9.60;100.00;100082.78;5093360;28;20036;-73
2022/11/04 00:08:36;;;;;;;4.45;2.50;;;;;;;9.46;100.00;100083.84;5093279;28;20028;-72
2022/11/04 00:13:46;;;;;;;2.80;1.40;;;;;;;9.27;100.00;100098.00;5093586;28;20127;-73
2022/11/04 00:18:59;;;;;;;1.33;0.93;;;;;;;9.11;100.00;100088.59;5093031;28;20066;-73
2022/11/04 00:30:00;;;;;;;1.23;0.80;;;;;;;9.05;100.00;100098.22;5092783;28;20046;-72
2022/11/04 00:35:10;;;;;;;1.10;1.00;;;;;;;9.10;100.00;100100.28;5092929;28;20062;-73
2022/11/04 00:37:40;;;;;;;1.60;1.10;;;;;;;9.09;100.00;100103.94;5092572;28;20036;-73
2022/11/04 00:40:07;;;;;;;1.30;1.13;;;;;;;9.10;100.00;100109.06;5092611;28;20043;-72
2022/11/04 00:42:33;;;;;;;1.80;1.50;;;;;;;9.12;100.00;100108.88;5092458;28;20032;-73
2022/11/04 00:44:58;;;;;;;1.30;1.10;;;;;;;9.11;100.00;100108.03;5074281;28;20047;-72
2022/11/04 00:47:24;;;;;;;3.25;1.30;;;;;;;9.05;100.00;100106.19;5092533;28;20024;-72
2022/11/04 00:49:49;;;;;;;1.83;1.40;;;;;;;9.04;100.00;100117.03;5092509;28;20456;-72
2022/11/04 00:52:15;;;;;;;3.97;1.83;;;;;;;8.97;100.00;100117.03;5092424;28;20596;-72
2022/11/04 00:54:40;;;;;;;4.70;2.58;;;;;;;8.94;100.00;100118.28;5092454;28;20097;-72
2022/11/04 00:57:08;;;;;;;7.57;3.63;;;;;;;8.92;100.00;100108.88;5092985;28;20086;-72
2022/11/04 00:59:34;;;;;;;6.75;3.40;;;;;;;8.88;100.00;100113.78;5092320;28;20483;-72
2022/11/04 01:01:59;;;;;;;7.53;3.95;;;;;;;8.87;100.00;100106.00;5092299;28;20046;-72
2022/11/04 01:04:24;;;;;;;9.32;4.80;;;;;;;8.91;100.00;100113.38;5092045;28;20028;-72
2022/11/04 01:06:50;;;;;;;13.32;6.43;;;;;;;8.96;100.00;100110.06;5091195;28;20120;-72
2022/11/04 01:09:15;;;;;;;13.20;6.00;;;;;;;9.00;100.00;100111.31;5091817;28;20051;-73
2022/11/04 01:11:40;;;;;;;12.88;5.82;;;;;;;9.01;100.00;100115.59;5073673;28;20056;-72
2022/11/04 01:14:06;;;;;;;11.75;6.22;;;;;;;9.03;100.00;100121.53;5091977;28;20024;-72
2022/11/04 01:16:32;;;;;;;12.00;6.35;;;;;;;9.02;100.00;100122.56;5091940;28;20024;-73
2022/11/04 01:18:57;;;;;;;13.57;6.32;;;;;;;9.04;100.00;100107.25;5091927;28;20058;-72
2022/11/04 01:21:23;;;;;;;12.25;6.07;;;;;;;9.13;100.00;100124.63;5091735;28;20549;-72
2022/11/04 01:23:48;;;;;;;14.98;7.55;;;;;;;9.17;100.00;100128.50;5091751;28;20131;-73
2022/11/04 01:26:20;;;;;;;15.30;7.15;;;;;;;9.17;100.00;100136.50;5091595;28;20050;-73
2022/11/04 01:28:45;;;;;;;13.98;6.93;;;;;;;9.20;100.00;100136.09;5091859;28;20020;-72
2022/11/04 01:31:14;;;;;;;13.30;7.30;;;;;;;9.18;100.00;100126.66;5091789;28;20032;-73
2022/11/04 01:33:40;;;;;;;16.30;8.15;;;;;;;9.20;100.00;100136.09;5091688;28;20024;-73
2022/11/04 01:36:07;;;;;;;13.43;6.43;;;;;;;9.21;100.00;100137.72;5091636;28;20035;-72
2022/11/04 01:38:32;;;;;;;17.02;7.22;;;;;;;9.22;100.00;100143.84;5091299;28;20152;-73
2022/11/04 01:40:58;;;;;;;15.48;7.32;;;;;;;9.23;100.00;100142.84;5091345;28;20103;-73
2022/11/04 01:43:42;;;;;;;16.20;6.78;;;;;;;9.25;100.00;100143.44;5073106;28;20383;-73
2022/11/04 01:46:11;;;;;;;16.17;6.95;;;;;;;9.23;100.00;100137.50;5091380;28;20062;-73
2022/11/04 01:48:36;;;;;;;15.65;7.82;;;;;;;9.21;100.00;100147.53;5091396;28;20020;-73
2022/11/04 01:51:02;;;;;;;17.63;8.25;;;;;;;9.16;100.00;100139.34;5091281;28;20019;-73
2022/11/04 01:53:32;;;;;;;14.63;6.47;;;;;;;9.14;100.00;100141.38;5091470;28;20032;-73
2022/11/04 01:56:01;;;;;;;14.55;6.85;;;;;;;9.06;100.00;100134.44;5091194;28;20424;-73
2022/11/04 01:58:34;;;;;;;13.65;6.57;;;;;;;9.06;100.00;100141.59;5091083;28;20024;-73
2022/11/04 02:01:00;;;;;;;15.60;6.78;;;;;;;8.97;100.00;100141.78;5091240;28;20486;-73
2022/11/04 02:03:33;;;;;;;17.70;6.97;;;;;;;8.89;100.00;100133.22;5091153;28;20420;-72
2022/11/04 02:05:59;;;;;;;13.68;5.68;;;;;;;8.88;100.00;100136.88;5091051;28;20039;-73
2022/11/04 02:08:25;;;;;;;12.35;6.65;;;;;;;8.88;100.00;100144.84;5090933;28;20070;-73
2022/11/04 02:10:57;;;;;;;14.10;7.13;;;;;;;8.80;100.00;100142.38;5090962;28;20024;-73
2022/11/04 02:13:23;;;;;;;13.57;5.40;;;;;;;8.77;100.00;100154.25;5090726;28;20513;-73
2022/11/04 02:16:10;;;;;;;14.65;6.28;;;;;;;8.71;100.00;100147.09;5072700;28;20031;-73
2022/11/04 02:19:02;;;;;;;11.82;4.70;;;;;;;8.70;100.00;100158.75;5090349;28;20645;-73
2022/11/04 02:22:20;;;;;;;11.13;5.10;;;;;;;8.66;100.00;100160.16;5090810;28;20046;-73
2022/11/04 02:24:58;;;;;;;11.80;4.95;;;;;;;8.58;100.00;100158.50;4988617;28;20172;-73
2022/11/04 02:27:43;;;;;;;10.48;5.47;;;;;;;8.54;100.00;100166.06;4988774;28;20033;-67
2022/11/04 02:30:15;;;;;;;10.00;5.18;;;;;;;8.51;100.00;100165.63;5067122;28;20475;-66
2022/11/04 02:32:46;;;;;;;13.40;5.47;;;;;;;8.49;100.00;100170.34;5090621;28;20031;-66
2022/11/04 02:35:20;;;;;;;13.40;4.70;;;;;;;8.45;100.00;100164.59;5090534;28;20446;-67
2022/11/04 02:37:53;;;;;;;11.13;3.95;;;;;;;8.39;100.00;100161.91;5090155;28;21045;-66
2022/11/04 02:40:37;;;;;;;12.60;4.25;;;;;;;8.37;100.00;100164.75;5089717;28;20039;-67
2022/11/04 02:43:30;;;;;;;6.32;3.83;;;;;;;8.28;100.00;100160.63;5089609;28;20081;-66
2022/11/04 02:46:15;;;;;;;7.03;3.58;;;;;;;8.23;100.00;100161.22;5089155;28;20027;-66
2022/11/04 02:48:59;;;;;;;10.45;3.83;;;;;;;8.24;100.00;100164.69;5088797;28;20119;-66
2022/11/04 02:51:30;;;;;;;6.82;3.15;;;;;;;8.26;100.00;100168.78;5089295;28;20035;-67
2022/11/04 02:54:24;;;;;;;8.60;3.67;;;;;;;8.24;100.00;100167.34;5108929;28;20106;-66
2022/11/04 02:56:53;;;;;;;6.30;2.75;;;;;;;8.25;100.00;100174.28;5108744;28;20034;-66
2022/11/04 02:59:26;;;;;;;11.73;3.58;;;;;;;8.22;100.00;100162.22;5108783;28;20028;-66
2022/11/04 03:01:55;;;;;;;6.05;2.33;;;;;;;8.19;100.00;100167.94;5108760;28;20020;-66
2022/11/04 03:04:28;;;;;;;5.57;2.95;;;;;;;8.19;100.00;100161.81;5108621;28;20058;-67
2022/11/04 03:06:56;;;;;;;5.22;2.47;;;;;;;8.17;100.00;100180.59;5108662;28;20410;-66
2022/11/04 03:09:22;;;;;;;13.20;4.72;;;;;;;8.12;100.00;100180.34;5108826;28;20023;-67
2022/11/04 03:11:54;;;;;;;4.38;1.92;;;;;;;8.08;100.00;100171.16;5090311;28;20096;-66
2022/11/04 03:14:26;;;;;;;9.50;2.47;;;;;;;8.05;100.00;100182.19;5088988;28;20028;-67
2022/11/04 03:16:55;;;;;;;5.30;2.72;;;;;;;8.06;100.00;100181.16;5088983;28;20056;-67
2022/11/04 03:19:48;;;;;;;2.67;1.73;;;;;;;8.06;100.00;100189.94;5089135;28;20039;-67
2022/11/04 03:22:17;;;;;;;4.85;2.38;;;;;;;8.03;100.00;100186.88;5090612;28;20040;-67
2022/11/04 03:24:45;;;;;;;6.35;2.20;;;;;;;8.01;100.00;100199.50;5089664;28;20028;-66
2022/11/04 03:27:31;;;;;;;5.35;1.98;;;;;;;7.99;100.00;100197.06;5089027;28;20027;-66
2022/11/04 03:30:05;;;;;;;6.45;3.08;;;;;;;7.93;100.00;100197.84;5088999;28;20119;-66
2022/11/04 03:32:49;;;;;;;4.10;2.55;;;;;;;7.93;100.00;100203.16;5092633;28;20070;-67
2022/11/04 03:35:16;;;;;;;5.30;2.40;;;;;;;7.89;100.00;100202.72;5092509;28;20450;-66
2022/11/04 03:37:43;;;;;;;5.57;1.85;;;;;;;7.85;100.00;100198.00;5092278;28;20094;-67
2022/11/04 03:40:10;;;;;;;6.28;1.80;;;;;;;7.85;100.00;100201.47;5068557;28;1212483;-67
2022/11/04 03:42:40;;;;;;;4.10;1.60;;;;;;;7.84;100.00;100205.16;5113250;28;20047;-67
2022/11/04 03:45:07;;;;;;;5.15;1.85;;;;;;;7.85;100.00;100208.63;5113274;28;20023;-66
2022/11/04 03:47:32;;;;;;;6.25;2.00;;;;;;;7.83;100.00;100216.78;5113244;28;20360;-66
2022/11/04 03:50:22;;;;;;;10.93;2.10;;;;;;;7.82;100.00;100206.34;5113034;28;20023;-66
2022/11/04 03:52:47;;;;;;;6.63;2.20;;;;;;;7.73;100.00;100205.69;5113053;28;20490;-66
2022/11/04 03:55:12;;;;;;;3.70;1.98;;;;;;;7.81;100.00;100215.34;5112930;28;20108;-66
2022/11/04 03:57:47;;;;;;;7.85;2.35;;;;;;;7.82;100.00;100203.69;5112982;28;20032;-66
2022/11/04 04:00:18;;;;;;;8.50;2.20;;;;;;;7.74;100.00;100202.00;5112928;28;20038;-66
2022/11/04 04:02:51;;;;;;;5.05;2.35;;;;;;;7.76;100.00;100207.94;5113034;28;20030;-66
2022/11/04 04:05:28;;;;;;;9.18;2.30;;;;;;;7.71;100.00;100205.06;5113095;28;20024;-67
2022/11/04 04:08:05;;;;;;;4.43;2.15;;;;;;;7.71;100.00;100212.22;5112864;28;20076;-66
2022/11/04 04:10:52;;;;;;;8.25;2.83;;;;;;;7.69;100.00;100207.06;5112890;28;20052;-67
2022/11/04 04:13:31;;;;;;;8.63;3.63;;;;;;;7.67;100.00;100214.41;5112714;28;20058;-66
2022/11/04 04:16:02;;;;;;;9.95;4.32;;;;;;;7.65;100.00;100217.28;5094124;28;20114;-66
2022/11/04 04:18:50;;;;;;;9.93;3.10;;;;;;;7.62;100.00;100215.00;5112565;28;20035;-66
2022/11/04 04:21:20;;;;;;;8.90;3.70;;;;;;;7.56;100.00;100220.25;5112492;28;20132;-66
2022/11/04 04:29:22;;;;;;;9.90;4.80;;;;;;;7.51;100.00;100226.13;5112742;28;20046;-66
2022/11/04 04:31:49;;;;;;;7.20;3.38;;;;;;;7.46;100.00;100228.53;5112360;28;20118;-66
2022/11/04 04:34:26;;;;;;;9.48;4.15;;;;;;;7.45;100.00;100234.88;5112450;28;20066;-66
2022/11/04 04:37:00;;;;;;;9.88;3.78;;;;;;;7.44;100.00;100244.66;5112476;28;20076;-67
2022/11/04 04:45:04;;;;;;;7.30;3.10;;;;;;;7.33;100.00;100236.38;5112362;28;20551;-66
2022/11/04 04:47:38;;;;;;;10.55;4.40;;;;;;;7.35;100.00;100251.09;5112046;28;20047;-67
2022/11/04 04:50:04;;;;;;;7.65;3.13;;;;;;;7.35;100.00;100253.75;5109072;28;20099;-66
2022/11/04 04:52:33;;;;;;;7.88;3.15;;;;;;;7.31;100.00;100246.34;5092396;28;20059;-67
2022/11/04 04:54:58;;;;;;;8.32;3.25;;;;;;;7.29;100.00;100253.69;5092546;28;20020;-67
2022/11/04 04:57:24;;;;;;;9.43;3.38;;;;;;;7.24;100.00;100249.78;5092280;28;20085;-66
2022/11/04 04:59:49;;;;;;;8.13;2.67;;;;;;;7.19;100.00;100240.75;5092406;28;20534;-66
2022/11/04 05:02:15;;;;;;;7.43;2.97;;;;;;;7.18;100.00;100253.19;5092357;28;20073;-66
2022/11/04 05:04:40;;;;;;;10.63;3.45;;;;;;;7.08;100.00;100244.72;5092152;28;20024;-67
2022/11/04 05:07:06;;;;;;;6.07;3.00;;;;;;;7.15;100.00;100258.03;5092101;28;20035;-67
2022/11/04 05:09:32;;;;;;;6.90;2.85;;;;;;;7.13;100.00;100257.44;5092270;28;20049;-66
2022/11/04 05:11:57;;;;;;;6.95;4.32;;;;;;;7.10;100.00;100255.13;5073975;28;20036;-67
2022/11/04 05:14:23;;;;;;;9.30;2.65;;;;;;;7.07;100.00;100248.38;5092062;28;20122;-67
2022/11/04 05:16:48;;;;;;;8.70;3.35;;;;;;;7.09;100.00;100259.63;5092036;28;20034;-66
2022/11/04 05:19:13;;;;;;;21.20;4.22;;;;;;;7.07;100.00;100252.84;5091943;28;20130;-66
2022/11/04 05:21:39;;;;;;;7.32;3.00;;;;;;;7.05;100.00;100260.19;5091558;28;20046;-66
2022/11/04 05:24:04;;;;;;;7.50;2.78;;;;;;;7.04;100.00;100267.31;5073722;28;20118;-66
2022/11/04 05:26:30;;;;;;;9.18;3.03;;;;;;;7.02;100.00;100270.16;5091784;28;20047;-66
2022/11/04 05:28:55;;;;;;;12.15;3.78;;;;;;;7.02;100.00;100278.13;5091697;28;20035;-66
2022/11/04 05:31:20;;;;;;;9.30;3.13;;;;;;;7.00;100.00;100276.66;5091543;28;20043;-66
2022/11/04 05:33:46;;;;;;;6.97;3.00;;;;;;;6.99;100.00;100281.13;5091759;28;20059;-66
2022/11/04 05:36:13;;;;;;;6.68;3.65;;;;;;;6.94;100.00;100286.19;5091632;28;20118;-67
2022/11/04 05:38:40;;;;;;;12.82;3.08;;;;;;;6.92;100.00;100280.25;5091368;28;20071;-66
2022/11/04 05:41:06;;;;;;;10.80;3.50;;;;;;;6.96;100.00;100284.16;5091507;28;20036;-66
2022/11/04 05:43:32;;;;;;;15.13;4.82;;;;;;;6.94;100.00;100288.00;5091530;28;20071;-66
2022/11/04 05:45:59;;;;;;;7.32;2.67;;;;;;;6.96;100.00;100293.94;5091423;28;20027;-66
2022/11/04 05:48:25;;;;;;;7.72;2.95;;;;;;;6.96;100.00;100297.41;5091459;28;20024;-66
2022/11/04 05:50:50;;;;;;;7.85;3.20;;;;;;;6.98;100.00;100298.06;5091354;28;20036;-66
2022/11/04 05:53:15;;;;;;;9.07;2.88;;;;;;;6.95;100.00;100292.31;5090503;28;20028;-67
2022/11/04 05:55:41;;;;;;;7.60;3.15;;;;;;;7.06;100.00;100298.94;5091019;28;20078;-66
2022/11/04 05:58:07;;;;;;;7.90;4.25;;;;;;;7.14;100.00;100312.91;5091064;28;20035;-66
2022/11/04 06:00:32;;;;;;;7.55;3.05;;;;;;;7.18;100.00;100306.25;5072902;28;20032;-66
2022/11/04 06:02:57;;;;;;;9.70;5.18;;;;;;;7.13;100.00;100294.56;5072814;28;20109;-67
2022/11/04 06:05:24;;;;;;;10.70;4.47;;;;;;;7.24;100.00;100315.28;5091103;28;20059;-66
2022/11/04 06:07:49;;;;;;;6.22;3.20;;;;;;;7.23;100.00;100303.84;5072820;28;20028;-66
2022/11/04 06:10:15;;;;;;;9.35;4.10;;;;;;;7.19;100.00;100301.75;5091023;28;20032;-67
2022/11/04 06:12:40;;;;;;;6.18;2.80;;;;;;;7.33;100.00;100315.97;5090964;28;20063;-66
2022/11/04 06:15:06;;;;;;;10.27;3.78;;;;;;;7.29;100.00;100306.75;5090970;28;20024;-67
2022/11/04 06:17:31;;;;;;;8.05;2.60;;;;;;;7.35;100.00;100320.06;5090685;28;20127;-66
2022/11/04 06:19:57;;;;;;;14.02;4.20;;;;;;;7.30;100.00;100311.84;5090752;28;20115;-66
2022/11/04 06:22:22;;;;;;;7.90;3.25;;;;;;;7.39;100.00;100325.84;5072270;28;20040;-73
2022/11/04 06:24:48;;;;;;;7.18;3.00;;;;;;;7.39;100.00;100329.31;5090617;28;20024;-72
2022/11/04 06:27:13;;;;;;;7.80;3.30;;;;;;;7.39;100.00;100331.97;5090273;28;20028;-73
2022/11/04 06:29:40;;;;;;;8.57;3.80;;;;;;;7.35;100.00;100316.59;5072177;28;20046;-73
2022/11/04 06:32:14;;;;;;;9.10;3.70;;;;;;;7.37;100.00;100327.84;5090545;28;20028;-73
2022/11/04 06:34:39;;;;;;;3.88;2.95;;;;;;;7.36;100.00;100331.50;5090541;28;20032;-73
2022/11/04 06:37:05;;;;;;;12.38;4.25;;;;;;;7.30;100.00;100322.47;5089979;28;20027;-72
2022/11/04 06:39:31;;;;;;;6.97;3.45;;;;;;;7.36;100.00;100340.31;5090325;28;20094;-72
2022/11/04 06:41:56;;;;;;;11.85;4.10;;;;;;;7.37;100.00;100341.94;5090262;28;20478;-73
2022/11/04 06:44:22;;;;;;;10.90;4.20;;;;;;;7.38;100.00;100337.44;5090338;28;20043;-73
2022/11/04 06:46:48;;;;;;;33.75;4.20;;;;;;;7.40;100.00;100346.84;5090199;28;20478;-73
2022/11/04 06:49:19;;;;;;;8.40;3.40;;;;;;;7.43;100.00;100354.44;5090061;28;20073;-73
2022/11/04 06:51:45;;;;;;;6.53;3.47;;;;;;;7.44;100.00;100352.59;5090064;28;20054;-73
2022/11/04 06:54:11;;;;;;;9.25;3.53;;;;;;;7.44;100.00;100353.44;5090121;28;20035;-73
2022/11/04 06:56:38;;;;;;;5.20;3.45;;;;;;;7.54;100.00;100365.56;5090134;28;20410;-73
2022/11/04 06:59:03;;;;;;;8.98;3.45;;;;;;;7.57;100.00;100366.03;5071659;28;20039;-73
2022/11/04 07:01:31;;;;;;;8.40;3.90;;;;;;;7.60;100.00;100367.47;5089919;28;20494;-73
2022/11/04 07:03:59;;;;;;;8.38;4.07;;;;;;;7.62;100.00;100362.78;5090049;28;20059;-73
2022/11/04 07:06:25;;;;;;;11.32;3.22;;;;;;;7.67;100.00;100368.34;5089899;28;20506;-73
2022/11/04 07:08:52;;;;;;;10.23;4.45;;;;;;;7.74;100.00;100374.53;5089879;28;20085;-73
2022/11/04 07:11:20;;;;;;;11.27;3.85;;;;;;;7.77;100.00;100374.16;5089867;28;20028;-73
2022/11/04 07:13:47;;;;;;;8.63;3.35;;;;;;;7.81;100.00;100379.94;5089765;28;20032;-73
2022/11/04 07:16:13;;;;;;;10.80;3.63;;;;;;;7.85;100.00;100384.66;5089657;28;20418;-73
2022/11/04 07:18:38;;;;;;;7.78;4.18;;;;;;;7.92;100.00;100389.22;5089760;28;20081;-73
2022/11/04 07:21:04;;;;;;;18.05;6.50;;;;;;;7.97;100.00;100390.28;5089674;28;20032;-73
2022/11/04 07:23:29;;;;;;;8.88;3.42;;;;;;;8.05;100.00;100395.47;5071490;28;20401;-73
2022/11/04 07:26:00;;;;;;;8.77;3.08;;;;;;;8.08;100.00;100392.41;5089755;28;20431;-73
2022/11/04 07:28:25;;;;;;;14.18;4.68;;;;;;;8.18;100.00;100400.06;5089807;28;20035;-73
2022/11/04 07:30:50;;;;;;;8.43;3.47;;;;;;;8.21;100.00;100401.50;5089641;28;20028;-73
2022/11/04 07:33:17;;;;;;;12.07;4.97;;;;;;;8.20;100.00;100405.16;5089795;28;20035;-66
2022/11/04 07:35:43;;;;;;;12.38;4.03;;;;;;;8.28;100.00;100405.06;5089713;28;20024;-67
2022/11/04 07:38:09;;;;;;;6.95;3.65;;;;;;;8.42;100.00;100403.34;5089607;28;20506;-66
2022/11/04 07:40:34;;;;;;;8.02;3.40;;;;;;;8.53;100.00;100408.13;5089208;28;20036;-66
2022/11/04 07:43:00;;;;;;;10.65;4.03;;;;;;;8.64;100.00;100399.59;5089512;28;20039;-66
2022/11/04 07:45:26;;;;;;;15.38;5.25;;;;;;;8.72;100.00;100403.94;5089450;28;20468;-66
2022/11/04 07:47:51;;;;;;;15.98;5.30;;;;;;;8.84;100.00;100409.53;5088824;28;20027;-66
2022/11/04 07:50:16;;;;;;;8.07;3.95;;;;;;;8.77;100.00;100398.84;5088167;28;20031;-66
2022/11/04 07:52:42;;;;;;;8.50;4.25;;;;;;;8.77;100.00;100414.81;5088545;28;21050;-65
2022/11/04 07:55:08;;;;;;;9.32;3.75;;;;;;;8.72;100.00;100411.91;5088706;28;20028;-66
2022/11/04 07:57:34;;;;;;;6.35;3.35;;;;;;;8.68;100.00;100413.34;5088816;28;20031;-66
2022/11/04 07:59:59;;;;;;;6.80;3.13;;;;;;;8.57;100.00;100398.75;5088991;28;20032;-66
2022/11/04 08:02:25;;;;;;;6.65;2.90;;;;;;;8.59;100.00;100414.47;5070877;28;20051;-66
2022/11/04 08:04:50;;;;;;;8.05;4.05;;;;;;;8.55;100.00;100414.06;5088975;28;20040;-66
2022/11/04 08:07:15;;;;;;;9.63;3.53;;;;;;;8.56;100.00;100421.00;5087916;28;20028;-66
2022/11/04 08:09:41;;;;;;;10.95;4.50;;;;;;;8.61;100.00;100423.09;5088600;28;20043;-66
2022/11/04 08:12:06;;;;;;;10.32;3.55;;;;;;;8.70;100.00;100425.41;5089199;28;20040;-66
2022/11/04 08:14:31;;;;;;;11.23;3.90;;;;;;;8.70;100.00;100419.28;5099007;28;20094;-66
2022/11/04 08:16:57;;;;;;;11.57;4.95;;;;;;;8.87;100.00;100431.22;5109447;28;20058;-66
2022/11/04 08:19:22;;;;;;;11.00;4.93;;;;;;;8.93;100.00;100440.25;5111425;28;20019;-66
2022/11/04 08:21:48;;;;;;;6.63;3.90;;;;;;;8.97;100.00;100439.69;5112209;28;20040;-66
2022/11/04 08:24:13;;;;;;;10.30;4.25;;;;;;;9.01;100.00;100442.75;5094102;28;20031;-66
2022/11/04 08:26:38;;;;;;;11.18;5.95;;;;;;;9.04;100.00;100444.19;5112428;28;20081;-66
2022/11/04 08:29:07;;;;;;;10.70;4.40;;;;;;;9.11;100.00;100448.53;5092679;28;20038;-66
2022/11/04 08:31:33;;;;;;;13.80;5.50;;;;;;;9.14;100.00;100456.16;5092894;28;20035;-66
2022/11/04 08:33:58;;;;;;;13.48;5.43;;;;;;;9.17;100.00;100452.28;5092843;28;20028;-66
2022/11/04 08:36:35;;;;;;;9.98;5.72;;;;;;;9.17;100.00;100452.28;5096674;28;20458;-68
2022/11/04 08:39:03;;;;;;;21.73;6.38;;;;;;;9.23;100.00;100462.13;5099741;28;20490;-68
2022/11/04 08:41:30;;;;;;;10.60;3.95;;;;;;;9.25;100.00;100465.41;5070572;28;20031;-67
2022/11/04 08:43:59;;;;;;;10.45;4.53;;;;;;;9.32;100.00;100458.25;5100247;28;20027;-68
2022/11/04 08:46:26;;;;;;;8.32;3.85;;;;;;;9.41;100.00;100472.25;5099277;28;20031;-67
2022/11/04 08:48:52;;;;;;;12.95;4.93;;;;;;;9.46;100.00;100466.31;5098717;28;20019;-68
2022/11/04 08:51:22;;;;;;;10.15;4.10;;;;;;;9.53;100.00;100461.84;5099750;28;20535;-67
2022/11/04 08:53:48;;;;;;;13.50;5.88;;;;;;;9.63;100.00;100464.94;5099695;28;20024;-68
2022/11/04 08:56:28;;;;;;;6.68;3.55;;;;;;;9.74;100.00;100475.00;5099437;28;20032;-67
2022/11/04 08:58:54;;;;;;;13.27;4.63;;;;;;;9.83;100.00;100481.00;5098894;28;20028;-68
2022/11/04 09:01:21;;;;;;;10.27;4.05;;;;;;;9.98;100.00;100479.00;5098404;28;20078;-67
2022/11/04 09:03:47;;;;;;;11.88;4.13;;;;;;;10.18;100.00;100489.66;5099798;28;20032;-68
2022/11/04 09:06:16;;;;;;;9.00;4.90;;;;;;;10.32;100.00;100495.84;5099226;28;20093;-68
2022/11/04 09:08:42;;;;;;;10.45;4.85;;;;;;;10.44;100.00;100501.41;5101238;28;20012;-68
2022/11/04 09:11:10;;;;;;;10.68;4.95;;;;;;;10.50;100.00;100504.06;5111674;28;20123;-68
2022/11/04 09:13:36;;;;;;;9.32;4.03;;;;;;;10.58;100.00;100515.56;5111578;28;20573;-67
2022/11/04 09:16:02;;;;;;;11.85;4.90;;;;;;;10.67;100.00;100507.16;5111432;28;20084;-67
2022/11/04 09:18:29;;;;;;;12.10;4.03;;;;;;;10.88;100.00;100515.97;5111372;28;20035;-67
2022/11/04 09:20:54;;;;;;;13.88;4.13;;;;;;;10.97;100.00;100517.38;5111381;28;20371;-67
2022/11/04 09:23:19;;;;;;;11.02;3.95;;;;;;;10.95;100.00;100522.09;5111260;28;20070;-67
2022/11/04 09:25:45;;;;;;;12.55;3.92;;;;;;;10.94;100.00;100531.16;5111285;28;20031;-67
2022/11/04 09:28:10;;;;;;;11.18;3.67;;;;;;;10.94;100.00;100523.97;5110354;28;20055;-67
2022/11/04 09:30:36;;;;;;;8.30;3.25;;;;;;;10.96;100.00;100529.91;5111380;28;20062;-67
2022/11/04 09:33:03;;;;;;;12.88;5.13;;;;;;;10.96;100.00;100531.78;5111189;28;20109;-67
2022/11/04 09:35:29;;;;;;;9.55;4.07;;;;;;;10.91;100.00;100537.72;5111206;28;20050;-67
2022/11/04 09:37:54;;;;;;;10.93;4.32;;;;;;;10.85;100.00;100535.06;5110946;28;20027;-67
2022/11/04 09:40:22;;;;;;;16.50;4.28;;;;;;;10.83;100.00;100545.94;5110777;28;20055;-67
2022/11/04 09:42:57;;;;;;;15.32;4.65;;;;;;;10.80;100.00;100538.34;5110893;28;20494;-67
2022/11/04 09:45:26;;;;;;;11.65;5.28;;;;;;;10.72;100.00;100543.88;5098006;28;20443;-67
2022/11/04 09:47:56;;;;;;;14.20;4.50;;;;;;;10.67;100.00;100549.84;5091386;28;20099;-67
2022/11/04 09:50:26;;;;;;;11.32;5.13;;;;;;;10.61;100.00;100545.31;5091346;28;20077;-67
2022/11/04 09:52:58;;;;;;;11.82;5.05;;;;;;;10.65;100.00;100551.06;5091371;28;20027;-67
2022/11/04 09:55:31;;;;;;;9.32;3.95;;;;;;;10.69;100.00;100557.66;5091278;28;20050;-67
2022/11/04 09:57:57;;;;;;;11.65;4.93;;;;;;;10.78;100.00;100566.25;5091190;28;20031;-67
2022/11/04 10:00:24;;;;;;;10.20;4.53;;;;;;;10.83;100.00;100559.28;5072847;28;20357;-68
2022/11/04 10:03:01;;;;;;;7.40;4.00;;;;;;;10.96;100.00;100571.78;5091034;28;20031;-67
2022/11/04 10:05:49;;;;;;;8.13;3.83;;;;;;;11.01;100.00;100577.34;5090978;28;20105;-67
2022/11/04 10:08:35;;;;;;;11.15;4.20;;;;;;;11.12;100.00;100573.22;5091105;28;20066;-67
2022/11/04 10:11:19;;;;;;;10.40;4.25;;;;;;;11.27;100.00;100578.34;5091146;28;20063;-67
2022/11/04 10:14:07;;;;;;;17.17;5.45;;;;;;;11.32;100.00;100576.69;5090988;28;20024;-67
2022/11/04 10:16:48;;;;;;;10.18;5.15;;;;;;;11.32;100.00;100579.34;5090779;28;20020;-67
2022/11/04 10:19:16;;;;;;;10.15;3.88;;;;;;;11.35;100.00;100573.59;5090836;28;20034;-67
2022/11/04 10:21:59;;;;;;;9.75;3.47;;;;;;;11.36;100.00;100579.75;5090600;28;20032;-67
2022/11/04 10:25:09;;;;;;;15.98;6.50;;;;;;;11.36;100.00;100577.06;5090773;28;20124;-67
2022/11/04 10:27:37;;;;;;;12.35;5.50;;;;;;;11.25;100.00;100577.72;5079453;28;20609;-67
2022/11/04 10:30:22;;;;;;;14.48;6.47;;;;;;;11.28;100.00;100593.31;5090618;28;20027;-67
2022/11/04 10:32:51;;;;;;;13.75;5.28;;;;;;;11.26;100.00;100593.50;5090569;28;20390;-67
2022/11/04 10:35:32;;;;;;;11.73;6.18;;;;;;;11.31;100.00;100600.91;5090596;28;20016;-67
2022/11/04 10:38:12;;;;;;;13.38;4.72;;;;;;;11.31;100.00;100599.06;5090750;28;20032;-67
2022/11/04 10:40:40;;;;;;;13.35;5.03;;;;;;;11.32;99.98;100602.56;5091729;28;20085;-67
2022/11/04 10:43:09;;;;;;;12.50;6.47;;;;;;;11.41;100.00;100598.63;5090311;28;20028;-67
2022/11/04 10:45:54;;;;;;;13.68;6.07;;;;;;;11.45;100.00;100605.22;5090216;28;20032;-67
2022/11/04 10:48:31;;;;;;;13.45;7.00;;;;;;;11.52;100.00;100603.31;5090214;28;20052;-67
2022/11/04 10:50:58;;;;;;;14.50;6.40;;;;;;;11.63;99.90;100601.84;5090062;28;20031;-67
2022/11/04 10:53:26;;;;;;;14.35;5.85;;;;;;;11.69;99.94;100597.56;5090048;28;20035;-67
2022/11/04 10:56:01;;;;;;;17.05;8.82;;;;;;;11.81;99.21;100609.22;5090128;28;20062;-67
2022/11/04 10:58:30;;;;;;;17.75;8.10;;;;;;;11.85;98.95;100605.09;5090054;28;20032;-67
2022/11/04 11:00:57;;;;;;;16.13;8.68;;;;;;;11.85;96.39;100603.25;5090128;28;20058;-67
2022/11/04 11:03:31;;;;;;;18.58;9.73;;;;;;;11.87;97.00;100596.88;5090130;28;20035;-67
2022/11/04 11:06:13;;;;;;;19.58;8.45;;;;;;;11.85;96.75;100591.75;5090095;28;20471;-67
2022/11/04 11:08:40;;;;;;;;;;;;;;;11.88;97.40;100593.19;5090516;28;20024;-67
2022/11/04 11:11:05;;;;;;;16.27;8.40;;;;;;;11.74;98.12;100597.75;5090108;28;20386;-67
2022/11/04 11:13:37;;;;;;;15.50;8.88;;;;;;;11.70;96.91;100600.00;5090008;28;20107;-67
2022/11/04 11:16:12;;;;;;;22.25;8.57;;;;;;;11.68;96.38;100612.75;5090039;28;20027;-67
2022/11/04 11:18:38;;;;;;;17.35;8.68;;;;;;;11.65;96.30;100607.81;5089891;28;20020;-67
2022/11/04 11:21:08;;;;;;;20.08;8.18;;;;;;;11.66;96.35;100619.31;5089849;28;20036;-67
2022/11/04 11:23:53;;;;;;;16.55;7.28;;;;;;;11.71;96.97;100631.06;5089888;28;20036;-67
2022/11/04 11:26:27;;;;;;;17.33;8.60;;;;;;;11.73;97.32;100628.16;5089703;28;20417;-67
2022/11/04 11:28:56;;;;;;;15.77;7.95;;;;;;;11.76;96.91;100625.91;5089902;28;20101;-67
2022/11/04 11:31:25;;;;;;;17.23;7.78;;;;;;;11.81;97.83;100626.06;5089733;28;20039;-72
2022/11/04 11:33:58;;;;;;;18.70;7.97;;;;;;;11.80;97.15;100612.94;5089784;28;20040;-73
2022/11/04 11:36:30;;;;;;;18.17;8.25;;;;;;;11.89;97.42;100616.22;5091473;28;20391;-78
2022/11/04 11:39:11;;;;;;;18.98;7.78;;;;;;;11.92;96.48;100616.63;5094681;28;20519;-72
2022/11/04 11:41:51;;;;;;;11.10;5.35;;;;;;;11.83;95.89;100618.66;5095104;28;20024;-77
2022/11/04 11:44:22;;;;;;;14.98;5.80;;;;;;;11.75;95.45;100620.75;5097169;28;20023;-76
2022/11/04 11:46:54;;;;;;;13.25;5.47;;;;;;;11.68;93.84;100625.28;5096606;28;20031;-75
2022/11/04 11:49:27;;;;;;;14.60;5.55;;;;;;;11.68;95.46;100634.13;5094436;28;20092;-76
2022/11/04 11:51:54;;;;;;;18.05;6.43;;;;;;;11.62;95.46;100634.97;5097404;28;20070;-73
2022/11/04 11:54:36;;;;;;;12.85;6.03;;;;;;;11.59;95.04;100635.38;5106119;28;20027;-74
2022/11/04 11:57:16;;;;;;;12.65;5.90;;;;;;;11.68;94.32;100635.97;5104228;28;20028;-74
2022/11/04 11:59:47;;;;;;;13.73;6.15;;;;;;;11.69;93.46;100637.63;5112881;28;20027;-74